Time;durP1;ratioP1;P1;durP2;ratioP2;P2;SDS_P1;SDS_P2;PMS_P1;PMS_P2;Temp;Humidity;BMP_temperature;BMP_pressure;BME280_temperature;BME280_humidity;BME280_pressure;Samples;Min_cycle;Max_cycle;Signal;HPM_P1;HPM_P2
2023/10/13 00:00:59;;;;;;;8.07;5.00;;;;;;;;;;5116038;28;20227;-37
2023/10/13 00:03:31;;;;;;;6.70;4.47;;;;;;;;;;5121407;27;20225;-36
2023/10/13 00:06:02;;;;;;;4.97;4.20;;;;;;;;;;5117786;27;20289;-37
2023/10/13 00:08:30;;;;;;;6.43;5.33;;;;;;;;;;5112562;28;20212;-38
2023/10/13 00:10:59;;;;;;;6.13;4.73;;;;;;;;;;5107732;28;20230;-38
2023/10/13 00:13:27;;;;;;;7.47;4.80;;;;;;;;;;5117563;27;20207;-36
2023/10/13 00:15:58;;;;;;;7.47;5.20;;;;;;;;;;5120417;27;20207;-39
2023/10/13 00:18:27;;;;;;;9.27;4.93;;;;;;;;;;5123445;27;20214;-37
2023/10/13 00:20:56;;;;;;;6.37;4.70;;;;;;;;;;5115320;27;20216;-37
2023/10/13 00:23:26;;;;;;;7.93;4.80;;;;;;;;;;5111647;28;20222;-37
2023/10/13 00:26:03;;;;;;;6.80;4.57;;;;;;;;;;5120136;27;20208;-35
2023/10/13 00:28:43;;;;;;;6.13;4.70;;;;;;;;;;5121803;27;20238;-37
2023/10/13 00:31:12;;;;;;;7.20;4.60;;;;;;;;;;5119882;27;20228;-34
2023/10/13 00:33:40;;;;;;;7.63;5.33;;;;;;;;;;5125961;27;20210;-36
2023/10/13 00:36:08;;;;;;;9.97;4.93;;;;;;;;;;5118636;27;20215;-35
2023/10/13 00:38:36;;;;;;;6.67;4.50;;;;;;;;;;5127339;27;20207;-40
2023/10/13 00:41:12;;;;;;;7.57;5.07;;;;;;;;;;5123035;27;20220;-37
2023/10/13 00:46:33;;;;;;;6.57;4.87;;;;;;;;;;5115567;27;20199;-37
2023/10/13 00:48:59;;;;;;;8.27;4.80;;;;;;;;;;5111733;27;20235;-38
2023/10/13 00:51:34;;;;;;;5.73;4.60;;;;;;;;;;5116664;27;20298;-34
2023/10/13 00:54:06;;;;;;;6.40;4.73;;;;;;;;;;5122029;27;20322;-37
2023/10/13 00:56:33;;;;;;;6.20;4.73;;;;;;;;;;5126582;27;20255;-35
2023/10/13 00:59:02;;;;;;;5.00;4.20;;;;;;;;;;5110474;27;20214;-39
2023/10/13 01:01:32;;;;;;;7.13;4.73;;;;;;;;;;5118287;27;20223;-39
2023/10/13 01:03:59;;;;;;;6.87;4.53;;;;;;;;;;5115741;27;20280;-36
2023/10/13 01:06:27;;;;;;;8.00;4.80;;;;;;;;;;5110099;27;20203;-31
2023/10/13 01:08:57;;;;;;;8.10;4.73;;;;;;;;;;5114003;27;20204;-41
2023/10/13 01:11:25;;;;;;;5.53;4.10;;;;;;;;;;5125112;27;20221;-43
2023/10/13 01:13:53;;;;;;;5.43;4.53;;;;;;;;;;5117614;27;20287;-38
2023/10/13 01:16:24;;;;;;;6.63;4.67;;;;;;;;;;5114405;27;20235;-40
2023/10/13 01:18:51;;;;;;;7.30;4.47;;;;;;;;;;5113804;27;20208;-40
2023/10/13 01:21:20;;;;;;;4.80;4.17;;;;;;;;;;5115824;27;20231;-40
2023/10/13 01:23:50;;;;;;;4.50;3.93;;;;;;;;;;5130337;27;20231;-37
2023/10/13 01:26:23;;;;;;;7.87;4.20;;;;;;;;;;5119214;27;20200;-38
2023/10/13 01:28:50;;;;;;;6.10;4.30;;;;;;;;;;5114731;27;20280;-37
2023/10/13 01:31:28;;;;;;;6.33;4.40;;;;;;;;;;5119068;27;20215;-35
2023/10/13 01:33:58;;;;;;;7.57;3.90;;;;;;;;;;5119105;27;20211;-40
2023/10/13 01:36:35;;;;;;;6.57;4.13;;;;;;;;;;5115307;27;20199;-35
2023/10/13 01:39:03;;;;;;;4.77;4.13;;;;;;;;;;5124453;27;20225;-35
2023/10/13 01:41:31;;;;;;;6.17;4.93;;;;;;;;;;5115738;27;20227;-39
2023/10/13 01:43:58;;;;;;;6.03;4.20;;;;;;;;;;5113412;27;20237;-35
2023/10/13 01:46:24;;;;;;;5.60;4.27;;;;;;;;;;5122597;27;20207;-35
2023/10/13 01:48:54;;;;;;;6.83;4.77;;;;;;;;;;5121744;27;20327;-37
2023/10/13 01:51:23;;;;;;;7.83;3.93;;;;;;;;;;5116020;27;20253;-34
2023/10/13 01:53:56;;;;;;;5.30;4.27;;;;;;;;;;5115693;27;20261;-36
2023/10/13 01:56:23;;;;;;;7.20;4.27;;;;;;;;;;5111618;27;20204;-39
2023/10/13 01:58:51;;;;;;;5.10;4.27;;;;;;;;;;5122655;27;20238;-38
2023/10/13 02:01:26;;;;;;;6.23;4.03;;;;;;;;;;5126658;27;20227;-38
2023/10/13 02:04:01;;;;;;;4.40;4.00;;;;;;;;;;5112526;27;20234;-41
2023/10/13 02:06:32;;;;;;;6.80;4.43;;;;;;;;;;5114339;27;20222;-38
2023/10/13 02:09:05;;;;;;;4.90;3.87;;;;;;;;;;5112246;27;20284;-38
2023/10/13 02:11:33;;;;;;;5.23;3.70;;;;;;;;;;5111098;27;20224;-42
2023/10/13 02:14:01;;;;;;;7.90;4.00;;;;;;;;;;5118668;27;20211;-38
2023/10/13 02:16:27;;;;;;;5.97;4.03;;;;;;;;;;5130472;27;20199;-38
2023/10/13 02:18:54;;;;;;;8.00;4.50;;;;;;;;;;5113317;27;20199;-38
2023/10/13 02:21:20;;;;;;;5.47;4.17;;;;;;;;;;5120055;27;20295;-39
2023/10/13 02:23:59;;;;;;;6.90;4.40;;;;;;;;;;5123028;27;20232;-40
2023/10/13 02:26:30;;;;;;;7.17;4.40;;;;;;;;;;5107199;27;20204;-39
2023/10/13 02:29:00;;;;;;;6.33;4.27;;;;;;;;;;5118267;27;20207;-42
2023/10/13 02:31:27;;;;;;;8.40;4.17;;;;;;;;;;5114195;27;20242;-39
2023/10/13 02:33:55;;;;;;;8.83;4.13;;;;;;;;;;5125512;27;20199;-38
2023/10/13 02:36:22;;;;;;;5.37;4.17;;;;;;;;;;5114470;27;20207;-34
2023/10/13 02:38:50;;;;;;;5.40;3.80;;;;;;;;;;5119140;27;20260;-40
2023/10/13 02:41:25;;;;;;;5.80;4.50;;;;;;;;;;5118938;27;20292;-39
2023/10/13 02:43:53;;;;;;;4.90;4.17;;;;;;;;;;5113149;27;20250;-37
2023/10/13 02:46:21;;;;;;;5.40;3.80;;;;;;;;;;5121381;27;20207;-34
2023/10/13 02:48:52;;;;;;;5.20;4.33;;;;;;;;;;5129007;27;20199;-37
2023/10/13 02:51:25;;;;;;;12.80;4.20;;;;;;;;;;5110787;27;20243;-34
2023/10/13 02:53:53;;;;;;;4.67;3.97;;;;;;;;;;5121534;27;20246;-39
2023/10/13 02:56:20;;;;;;;5.53;3.83;;;;;;;;;;5117483;27;20207;-44
2023/10/13 02:58:53;;;;;;;5.53;4.23;;;;;;;;;;5111099;27;20207;-36
2023/10/13 03:01:22;;;;;;;5.53;4.03;;;;;;;;;;5110817;28;20227;-36
2023/10/13 03:03:51;;;;;;;4.27;3.87;;;;;;;;;;5117481;27;20199;-36
2023/10/13 03:06:21;;;;;;;6.60;4.00;;;;;;;;;;5120508;27;20216;-36
2023/10/13 03:08:49;;;;;;;6.20;4.40;;;;;;;;;;5122138;27;20225;-36
2023/10/13 03:11:20;;;;;;;9.30;4.40;;;;;;;;;;5116831;27;20234;-40
2023/10/13 03:13:47;;;;;;;6.47;4.50;;;;;;;;;;5110569;27;20204;-36
2023/10/13 03:16:15;;;;;;;5.40;3.97;;;;;;;;;;5109682;28;20256;-36
2023/10/13 03:18:53;;;;;;;6.47;4.33;;;;;;;;;;5119800;27;20207;-35
2023/10/13 03:21:29;;;;;;;6.13;3.93;;;;;;;;;;5123520;27;20234;-38
2023/10/13 03:24:04;;;;;;;5.63;4.57;;;;;;;;;;5110914;28;20223;-39
2023/10/13 03:26:34;;;;;;;5.50;3.97;;;;;;;;;;5114929;28;20247;-38
2023/10/13 03:29:03;;;;;;;5.30;3.90;;;;;;;;;;5118694;28;20215;-35
2023/10/13 03:31:36;;;;;;;7.60;3.80;;;;;;;;;;5126156;28;20251;-35
2023/10/13 03:34:11;;;;;;;4.73;3.60;;;;;;;;;;5113562;27;20204;-41
2023/10/13 03:36:58;;;;;;;5.07;3.63;;;;;;;;;;5113158;28;20214;-38
2023/10/13 03:39:30;;;;;;;5.83;3.83;;;;;;;;;;5127057;28;21328;-39
2023/10/13 03:41:59;;;;;;;5.97;4.53;;;;;;;;;;5114313;28;20203;-34
2023/10/13 03:44:31;;;;;;;8.53;4.17;;;;;;;;;;5116962;28;20668;-42
2023/10/13 03:47:08;;;;;;;4.90;3.70;;;;;;;;;;5120324;27;20215;-41
2023/10/13 03:49:38;;;;;;;5.97;4.00;;;;;;;;;;5112838;28;20223;-37
2023/10/13 03:52:06;;;;;;;9.23;4.33;;;;;;;;;;5112750;27;20207;-37
2023/10/13 03:54:34;;;;;;;6.63;3.70;;;;;;;;;;5125261;27;20247;-38
2023/10/13 03:57:10;;;;;;;5.03;3.70;;;;;;;;;;5117674;27;20215;-37
2023/10/13 03:59:38;;;;;;;4.23;3.80;;;;;;;;;;5124601;27;20218;-36
2023/10/13 04:02:12;;;;;;;4.63;3.50;;;;;;;;;;5124516;27;20241;-37
2023/10/13 04:04:48;;;;;;;5.17;3.63;;;;;;;;;;5113362;27;20230;-36
2023/10/13 04:07:39;;;;;;;9.47;4.00;;;;;;;;;;5124903;27;20198;-35
2023/10/13 04:16:34;;;;;;;8.57;4.37;;;;;;;;;;5121292;27;20450;-37
2023/10/13 04:19:09;;;;;;;5.33;4.17;;;;;;;;;;5126131;27;20303;-40
2023/10/13 04:21:42;;;;;;;5.43;4.30;;;;;;;;;;5119629;27;20227;-36
2023/10/13 04:24:22;;;;;;;6.33;4.60;;;;;;;;;;5119611;27;20243;-33
2023/10/13 04:27:18;;;;;;;5.27;4.40;;;;;;;;;;5125373;27;20204;-38
2023/10/13 04:30:01;;;;;;;6.47;4.13;;;;;;;;;;5126972;27;20211;-34
2023/10/13 04:32:33;;;;;;;5.47;3.83;;;;;;;;;;5123208;27;20253;-39
2023/10/13 04:35:08;;;;;;;7.80;4.20;;;;;;;;;;5114631;27;20207;-41
2023/10/13 04:37:50;;;;;;;6.77;3.70;;;;;;;;;;5118962;27;20194;-42
2023/10/13 04:40:19;;;;;;;4.23;3.80;;;;;;;;;;5116187;27;20230;-42
2023/10/13 04:42:56;;;;;;;6.63;5.43;;;;;;;;;;5105364;27;20203;-36
2023/10/13 04:48:17;;;;;;;7.57;4.83;;;;;;;;;;5118567;27;20291;-36
2023/10/13 04:50:46;;;;;;;6.60;4.60;;;;;;;;;;5120637;27;20227;-34
2023/10/13 04:53:27;;;;;;;6.67;4.40;;;;;;;;;;5111617;27;20213;-40
2023/10/13 04:56:07;;;;;;;5.37;4.30;;;;;;;;;;5118127;27;20199;-38
2023/10/13 05:04:21;;;;;;;4.77;4.30;;;;;;;;;;5121711;27;20237;-37
2023/10/13 05:46:02;;;;;;;5.60;4.10;;;;;;;;;;5115169;27;20504;-40
2023/10/13 05:48:41;;;;;;;6.27;4.20;;;;;;;;;;5125305;27;20269;-35
2023/10/13 06:29:38;;;;;;;5.70;4.17;;;;;;;;;;5119415;27;20223;-35
2023/10/13 06:32:10;;;;;;;6.50;4.00;;;;;;;;;;5122424;27;20205;-39
2023/10/13 06:34:44;;;;;;;4.43;3.80;;;;;;;;;;5121720;27;20203;-40
2023/10/13 06:37:23;;;;;;;5.77;3.80;;;;;;;;;;5115403;27;20267;-34
2023/10/13 06:39:50;;;;;;;3.93;3.53;;;;;;;;;;5111624;28;20220;-39
2023/10/13 06:42:19;;;;;;;7.10;3.73;;;;;;;;;;5112939;27;20292;-38
2023/10/13 06:44:46;;;;;;;7.77;4.80;;;;;;;;;;5119395;27;20224;-33
2023/10/13 06:47:15;;;;;;;7.83;3.77;;;;;;;;;;5121367;27;20200;-33
2023/10/13 06:49:43;;;;;;;5.53;3.93;;;;;;;;;;5120072;27;20220;-33
2023/10/13 06:52:11;;;;;;;7.70;4.20;;;;;;;;;;5113674;27;20204;-40
2023/10/13 06:54:38;;;;;;;7.07;3.93;;;;;;;;;;5115143;27;20208;-35
2023/10/13 06:57:07;;;;;;;5.13;3.87;;;;;;;;;;5122490;27;20200;-37
2023/10/13 06:59:36;;;;;;;6.30;3.93;;;;;;;;;;5117328;27;20230;-39
2023/10/13 07:02:06;;;;;;;4.57;4.10;;;;;;;;;;5118986;27;20216;-35
2023/10/13 07:04:34;;;;;;;7.70;4.47;;;;;;;;;;5128667;27;20210;-37
2023/10/13 07:07:05;;;;;;;7.93;4.20;;;;;;;;;;5120261;27;20204;-38
2023/10/13 07:09:49;;;;;;;6.80;4.03;;;;;;;;;;5129511;27;20367;-31
2023/10/13 07:12:22;;;;;;;8.30;4.37;;;;;;;;;;5116385;27;20204;-36
2023/10/13 07:14:53;;;;;;;6.70;4.30;;;;;;;;;;5121855;27;20211;-35
2023/10/13 07:17:24;;;;;;;6.67;4.43;;;;;;;;;;5130855;27;20207;-39
2023/10/13 07:20:05;;;;;;;6.17;4.33;;;;;;;;;;5111531;28;20220;-40
2023/10/13 07:22:39;;;;;;;6.70;4.40;;;;;;;;;;5110658;28;20228;-34
2023/10/13 07:25:15;;;;;;;5.23;4.17;;;;;;;;;;5123212;28;20219;-34
2023/10/13 07:27:42;;;;;;;5.20;4.00;;;;;;;;;;5118402;28;20213;-41
2023/10/13 07:30:14;;;;;;;9.10;5.77;;;;;;;;;;5119726;28;20291;-37
2023/10/13 07:32:45;;;;;;;7.63;4.60;;;;;;;;;;5120929;28;20249;-37
2023/10/13 07:35:15;;;;;;;8.17;4.47;;;;;;;;;;5122578;27;20203;-42
2023/10/13 07:37:43;;;;;;;7.67;5.03;;;;;;;;;;5122183;28;20207;-37
2023/10/13 07:40:27;;;;;;;7.17;4.83;;;;;;;;;;5116598;28;20709;-35
2023/10/13 07:43:00;;;;;;;10.03;5.40;;;;;;;;;;5113779;28;20199;-37
2023/10/13 07:45:35;;;;;;;6.20;4.67;;;;;;;;;;5122859;28;20234;-35
2023/10/13 07:48:07;;;;;;;7.33;4.93;;;;;;;;;;5125533;28;20210;-38
2023/10/13 07:50:36;;;;;;;12.73;5.10;;;;;;;;;;5125720;28;20261;-39
2023/10/13 07:53:19;;;;;;;9.73;5.73;;;;;;;;;;5118886;28;20231;-31
2023/10/13 07:55:47;;;;;;;6.70;4.83;;;;;;;;;;5119124;27;20195;-41
2023/10/13 07:58:14;;;;;;;10.30;5.33;;;;;;;;;;5109973;27;20208;-38
2023/10/13 08:00:54;;;;;;;5.37;4.77;;;;;;;;;;5121141;27;20231;-37
2023/10/13 08:03:43;;;;;;;5.67;4.23;;;;;;;;;;5127361;27;20237;-39
2023/10/13 08:06:21;;;;;;;8.10;4.83;;;;;;;;;;5108986;27;20224;-38
2023/10/13 08:08:53;;;;;;;11.57;5.33;;;;;;;;;;5120145;28;20206;-38
2023/10/13 08:11:30;;;;;;;6.73;4.33;;;;;;;;;;5111181;28;20231;-43
2023/10/13 08:13:59;;;;;;;7.47;4.23;;;;;;;;;;5112096;27;20496;-37
2023/10/13 08:16:45;;;;;;;10.77;4.50;;;;;;;;;;5119284;27;20199;-39
2023/10/13 08:19:13;;;;;;;7.33;4.30;;;;;;;;;;5122641;28;20199;-32
2023/10/13 08:21:48;;;;;;;9.40;4.33;;;;;;;;;;5113258;28;20208;-39
2023/10/13 08:24:16;;;;;;;9.20;4.77;;;;;;;;;;5115684;28;20204;-37
2023/10/13 08:26:57;;;;;;;11.10;4.60;;;;;;;;;;5108558;28;20223;-34
2023/10/13 08:32:20;;;;;;;10.33;4.80;;;;;;;;;;5116998;28;20210;-39
2023/10/13 08:35:10;;;;;;;9.90;4.60;;;;;;;;;;5122763;27;20200;-33
2023/10/13 08:37:59;;;;;;;10.57;5.63;;;;;;;;;;5121626;27;20210;-36
2023/10/13 08:41:28;;;;;;;8.30;4.07;;;;;;;;;;5131027;27;20235;-40
2023/10/13 08:43:45;;;;;;;13.90;4.50;;;;;;;;;;5120327;27;20199;-37
2023/10/13 08:46:24;;;;;;;7.00;4.37;;;;;;;;;;5115075;27;20211;-37
2023/10/13 08:49:03;;;;;;;6.07;3.43;;;;;;;;;;5114074;28;20192;-35
2023/10/13 08:51:43;;;;;;;4.97;3.30;;;;;;;;;;5121712;27;20227;-37
2023/10/13 08:54:19;;;;;;;5.43;3.47;;;;;;;;;;5130784;27;20209;-41
2023/10/13 08:56:47;;;;;;;5.53;3.83;;;;;;;;;;5114648;27;20206;-31
2023/10/13 08:59:22;;;;;;;6.67;3.60;;;;;;;;;;5115959;27;20204;-36
2023/10/13 09:01:48;;;;;;;4.57;2.97;;;;;;;;;;5132341;27;20214;-37
2023/10/13 09:04:22;;;;;;;8.93;3.87;;;;;;;;;;5128490;27;20203;-39
2023/10/13 09:07:03;;;;;;;5.60;3.93;;;;;;;;;;5122234;27;20216;-38
2023/10/13 09:09:42;;;;;;;7.10;3.70;;;;;;;;;;5113143;28;20381;-37
2023/10/13 09:12:11;;;;;;;6.43;3.40;;;;;;;;;;5110208;27;20256;-43
2023/10/13 09:14:42;;;;;;;7.13;3.20;;;;;;;;;;5116508;27;20203;-34
2023/10/13 09:17:12;;;;;;;5.60;3.60;;;;;;;;;;5119729;27;20254;-38
2023/10/13 09:19:55;;;;;;;7.83;3.60;;;;;;;;;;5123577;27;20246;-41
2023/10/13 09:22:26;;;;;;;5.90;3.30;;;;;;;;;;5123033;27;20200;-39
2023/10/13 09:24:58;;;;;;;5.37;3.03;;;;;;;;;;5127943;27;20202;-42
2023/10/13 09:27:26;;;;;;;8.67;3.40;;;;;;;;;;5128288;27;20204;-38
2023/10/13 09:30:09;;;;;;;6.27;3.40;;;;;;;;;;5121721;27;20223;-31
2023/10/13 09:32:45;;;;;;;5.53;3.40;;;;;;;;;;5121687;27;20553;-38
2023/10/13 09:35:13;;;;;;;5.27;3.07;;;;;;;;;;5113173;27;20207;-39
2023/10/13 09:37:41;;;;;;;5.40;3.43;;;;;;;;;;5124546;27;20206;-36
2023/10/13 09:40:25;;;;;;;5.40;3.13;;;;;;;;;;5133194;27;20229;-35
2023/10/13 09:42:52;;;;;;;6.57;3.50;;;;;;;;;;5122293;27;20291;-38
2023/10/13 09:45:27;;;;;;;6.13;2.90;;;;;;;;;;5130148;27;20203;-38
2023/10/13 09:47:57;;;;;;;6.23;3.43;;;;;;;;;;5120960;27;20317;-37
2023/10/13 09:50:24;;;;;;;5.80;3.40;;;;;;;;;;5119363;27;20224;-38
2023/10/13 09:52:52;;;;;;;4.93;3.23;;;;;;;;;;5115645;27;20236;-37
2023/10/13 09:55:25;;;;;;;8.93;3.63;;;;;;;;;;5119072;27;20268;-41
2023/10/13 09:57:59;;;;;;;6.33;2.97;;;;;;;;;;5117987;27;20215;-39
2023/10/13 10:06:06;;;;;;;5.93;3.23;;;;;;;;;;5120802;27;20219;-38
2023/10/13 10:08:33;;;;;;;12.93;3.07;;;;;;;;;;5127491;27;20218;-37
2023/10/13 10:11:21;;;;;;;7.87;2.70;;;;;;;;;;5124998;27;20430;-33
2023/10/13 10:13:54;;;;;;;6.33;2.53;;;;;;;;;;5116048;27;20219;-38
2023/10/13 10:16:35;;;;;;;4.00;2.83;;;;;;;;;;5112634;27;20199;-34
2023/10/13 10:19:02;;;;;;;4.97;2.60;;;;;;;;;;5128132;27;20203;-39
2023/10/13 10:21:35;;;;;;;7.20;3.37;;;;;;;;;;5115904;27;20211;-35
2023/10/13 10:24:13;;;;;;;4.03;2.80;;;;;;;;;;5122352;27;20256;-34
2023/10/13 10:26:52;;;;;;;5.67;3.43;;;;;;;;;;5122344;27;20223;-35
2023/10/13 10:29:19;;;;;;;8.57;3.33;;;;;;;;;;5120989;27;20204;-37
2023/10/13 10:31:47;;;;;;;8.50;2.60;;;;;;;;;;5128169;27;20210;-38
2023/10/13 10:34:18;;;;;;;3.90;2.70;;;;;;;;;;5122894;27;20207;-39
2023/10/13 10:36:48;;;;;;;5.43;2.53;;;;;;;;;;5120554;27;20195;-40
2023/10/13 10:39:17;;;;;;;5.57;3.20;;;;;;;;;;5122105;27;20282;-43
2023/10/13 10:41:51;;;;;;;5.87;2.63;;;;;;;;;;5121095;27;20225;-34
2023/10/13 10:44:22;;;;;;;6.63;2.90;;;;;;;;;;5111811;27;20196;-37
2023/10/13 10:46:57;;;;;;;10.30;2.97;;;;;;;;;;5122729;27;20223;-42
2023/10/13 10:49:29;;;;;;;7.87;2.73;;;;;;;;;;5121721;27;20229;-38
2023/10/13 10:52:00;;;;;;;5.63;3.07;;;;;;;;;;5118616;27;20228;-34
2023/10/13 10:54:31;;;;;;;8.07;2.57;;;;;;;;;;5123917;27;20249;-34
2023/10/13 10:57:11;;;;;;;8.07;2.63;;;;;;;;;;5114372;27;20267;-34
2023/10/13 10:59:38;;;;;;;4.00;2.63;;;;;;;;;;5113564;27;20220;-37
2023/10/13 11:02:08;;;;;;;7.80;2.50;;;;;;;;;;5128578;27;20208;-36
2023/10/13 11:04:40;;;;;;;5.40;3.00;;;;;;;;;;5110731;27;20201;-36
2023/10/13 11:07:09;;;;;;;5.83;2.57;;;;;;;;;;5115779;27;20221;-34
2023/10/13 11:09:45;;;;;;;7.53;2.50;;;;;;;;;;5117788;27;20240;-42
2023/10/13 11:12:16;;;;;;;5.37;2.73;;;;;;;;;;5107188;27;20209;-39
2023/10/13 11:14:46;;;;;;;8.07;2.43;;;;;;;;;;5127931;27;20583;-35
2023/10/13 11:17:24;;;;;;;5.17;2.37;;;;;;;;;;5118824;27;20216;-42
2023/10/13 11:19:51;;;;;;;7.50;2.83;;;;;;;;;;5126358;27;20275;-35
2023/10/13 11:22:33;;;;;;;5.90;2.50;;;;;;;;;;5113993;27;20203;-38
2023/10/13 11:25:03;;;;;;;7.03;2.57;;;;;;;;;;5121023;27;20295;-33
2023/10/13 11:30:16;;;;;;;2.90;2.40;;;;;;;;;;5107824;28;20232;-38
2023/10/13 11:32:46;;;;;;;4.67;2.00;;;;;;;;;;5122074;27;20199;-39
2023/10/13 11:35:20;;;;;;;7.00;2.33;;;;;;;;;;5117324;27;20199;-39
2023/10/13 11:37:56;;;;;;;7.43;2.60;;;;;;;;;;5119199;28;20201;-37
2023/10/13 11:40:43;;;;;;;5.43;2.90;;;;;;;;;;5129158;28;20232;-34
2023/10/13 11:43:14;;;;;;;5.53;2.70;;;;;;;;;;5114469;28;20214;-35
2023/10/13 11:45:55;;;;;;;10.13;2.67;;;;;;;;;;5111831;28;20294;-35
2023/10/13 11:48:36;;;;;;;4.23;2.10;;;;;;;;;;5131069;27;20268;-37
2023/10/13 11:51:07;;;;;;;6.57;2.40;;;;;;;;;;5117405;28;20295;-30
2023/10/13 11:53:35;;;;;;;9.73;2.23;;;;;;;;;;5117001;28;20202;-40
2023/10/13 11:56:02;;;;;;;6.87;2.03;;;;;;;;;;5120315;28;20288;-37
2023/10/13 11:58:32;;;;;;;11.83;2.37;;;;;;;;;;5113224;28;20229;-38
2023/10/13 12:01:19;;;;;;;4.73;2.00;;;;;;;;;;5122089;28;20311;-34
2023/10/13 12:06:46;;;;;;;3.60;2.00;;;;;;;;;;5116794;27;20224;-42
2023/10/13 12:09:32;;;;;;;4.00;2.37;;;;;;;;;;5126165;27;20285;-42
2023/10/13 12:12:02;;;;;;;3.80;2.60;;;;;;;;;;5121716;27;20211;-40
2023/10/13 12:14:37;;;;;;;5.70;2.00;;;;;;;;;;5127426;27;20214;-35
2023/10/13 12:17:10;;;;;;;6.90;2.37;;;;;;;;;;5127406;27;20202;-33
2023/10/13 12:19:38;;;;;;;11.43;2.77;;;;;;;;;;5125599;27;20271;-38
2023/10/13 12:22:08;;;;;;;7.33;2.50;;;;;;;;;;5121978;27;20203;-39
2023/10/13 12:24:42;;;;;;;5.33;2.00;;;;;;;;;;5123217;27;20199;-34
2023/10/13 12:27:19;;;;;;;7.50;2.70;;;;;;;;;;5116729;27;20234;-39
2023/10/13 12:29:48;;;;;;;4.90;2.30;;;;;;;;;;5129515;27;20222;-37
2023/10/13 12:32:22;;;;;;;6.00;2.37;;;;;;;;;;5130773;27;20200;-35
2023/10/13 12:35:00;;;;;;;3.37;1.97;;;;;;;;;;5125791;27;20217;-33
2023/10/13 12:37:50;;;;;;;3.43;2.27;;;;;;;;;;5128394;27;20224;-37
2023/10/13 12:51:40;;;;;;;5.20;2.17;;;;;;;;;;5122377;27;20226;-39
2023/10/13 12:54:13;;;;;;;2.53;2.20;;;;;;;;;;5123449;27;20195;-38
2023/10/13 12:56:41;;;;;;;3.77;2.30;;;;;;;;;;5121952;27;20208;-38
2023/10/13 12:59:09;;;;;;;7.10;2.80;;;;;;;;;;5119182;27;20506;-32
2023/10/13 13:01:42;;;;;;;4.82;2.28;;;;;;;;;;5122286;27;20226;-38
2023/10/13 13:04:12;;;;;;;3.83;2.17;;;;;;;;;;5125515;27;20206;-34
2023/10/13 13:06:40;;;;;;;4.07;1.97;;;;;;;;;;5119653;27;20251;-35
2023/10/13 13:09:09;;;;;;;4.17;2.30;;;;;;;;;;5125061;27;20210;-34
2023/10/13 13:11:39;;;;;;;5.30;1.73;;;;;;;;;;5118639;27;20278;-39
2023/10/13 13:14:08;;;;;;;4.63;2.50;;;;;;;;;;5116933;27;20235;-37
2023/10/13 13:16:39;;;;;;;6.35;2.30;;;;;;;;;;5122848;27;20199;-39
2023/10/13 13:19:11;;;;;;;4.73;2.57;;;;;;;;;;5132088;27;20290;-37
2023/10/13 13:21:38;;;;;;;5.82;2.70;;;;;;;;;;5123969;27;20215;-35
2023/10/13 13:24:10;;;;;;;3.63;2.25;;;;;;;;;;5126797;27;20222;-37
2023/10/13 13:26:40;;;;;;;8.65;3.00;;;;;;;;;;5128010;27;20225;-36
2023/10/13 13:29:10;;;;;;;4.82;2.60;;;;;;;;;;5126602;27;20227;-35
2023/10/13 13:31:43;;;;;;;4.03;2.37;;;;;;;;;;5124077;27;20220;-35
2023/10/13 13:34:15;;;;;;;4.38;2.40;;;;;;;;;;5119621;27;20219;-37
2023/10/13 13:36:44;;;;;;;4.60;2.40;;;;;;;;;;5125277;27;20202;-38
2023/10/13 13:39:11;;;;;;;4.65;2.13;;;;;;;;;;5115604;27;20200;-40
2023/10/13 13:41:38;;;;;;;4.50;2.30;;;;;;;;;;5124134;27;20304;-39
2023/10/13 13:44:14;;;;;;;4.22;1.90;;;;;;;;;;5120061;27;20215;-40
2023/10/13 13:46:42;;;;;;;6.00;2.50;;;;;;;;;;5123329;27;20226;-37
2023/10/13 13:49:17;;;;;;;3.65;2.38;;;;;;;;;;5112785;27;20206;-39
2023/10/13 13:51:51;;;;;;;3.38;2.08;;;;;;;;;;5122309;27;20204;-40
2023/10/13 13:54:19;;;;;;;6.10;2.63;;;;;;;;;;5118159;27;20208;-39
2023/10/13 13:56:46;;;;;;;6.10;2.33;;;;;;;;;;5119618;27;20249;-39
2023/10/13 13:59:15;;;;;;;7.15;2.58;;;;;;;;;;5122507;27;20233;-39
2023/10/13 14:01:44;;;;;;;6.05;2.40;;;;;;;;;;5121305;27;20208;-37
2023/10/13 14:04:11;;;;;;;3.53;2.35;;;;;;;;;;5122649;27;20210;-36
2023/10/13 14:06:39;;;;;;;8.95;2.40;;;;;;;;;;5119301;27;20235;-39
2023/10/13 14:09:15;;;;;;;6.22;2.72;;;;;;;;;;5111841;27;20214;-41
2023/10/13 14:14:47;;;;;;;3.60;2.35;;;;;;;;;;5120039;27;20199;-40
2023/10/13 14:17:14;;;;;;;3.50;2.35;;;;;;;;;;5118127;27;20207;-38
2023/10/13 14:19:43;;;;;;;6.55;2.42;;;;;;;;;;5121135;27;20229;-37
2023/10/13 14:22:12;;;;;;;5.50;2.40;;;;;;;;;;5119480;27;20282;-37
2023/10/13 14:24:51;;;;;;;9.25;2.20;;;;;;;;;;5125989;27;20199;-38
2023/10/13 14:27:20;;;;;;;5.00;2.60;;;;;;;;;;5123407;27;20288;-35
2023/10/13 14:29:47;;;;;;;3.47;2.30;;;;;;;;;;5115429;27;20223;-36
2023/10/13 14:32:15;;;;;;;5.47;2.38;;;;;;;;;;5115894;27;20203;-33
2023/10/13 14:34:43;;;;;;;6.28;2.55;;;;;;;;;;5118723;27;20665;-38
2023/10/13 14:37:12;;;;;;;9.60;2.42;;;;;;;;;;5112824;27;20294;-41
2023/10/13 14:39:39;;;;;;;3.87;2.20;;;;;;;;;;5116532;27;20227;-36
2023/10/13 14:42:08;;;;;;;4.78;2.45;;;;;;;;;;5121449;27;20243;-39
2023/10/13 14:44:36;;;;;;;3.42;2.10;;;;;;;;;;5124885;27;20209;-43
2023/10/13 14:47:05;;;;;;;2.92;2.22;;;;;;;;;;5113094;27;20249;-41
2023/10/13 14:49:33;;;;;;;8.85;2.20;;;;;;;;;;5117599;27;20199;-40
2023/10/13 14:52:02;;;;;;;8.88;2.28;;;;;;;;;;5117442;27;20212;-40
2023/10/13 14:54:35;;;;;;;3.03;2.20;;;;;;;;;;5121002;27;20251;-40
2023/10/13 14:57:02;;;;;;;3.67;2.03;;;;;;;;;;5111419;27;20200;-38
2023/10/13 14:59:38;;;;;;;2.17;1.73;;;;;;;;;;5119647;27;20242;-39
2023/10/13 15:02:05;;;;;;;5.30;2.10;;;;;;;;;;5123846;27;20286;-40
2023/10/13 15:04:33;;;;;;;3.58;2.00;;;;;;;;;;5127376;27;20214;-40
2023/10/13 15:07:02;;;;;;;2.67;2.15;;;;;;;;;;5122349;27;20223;-34
2023/10/13 15:09:29;;;;;;;2.33;2.13;;;;;;;;;;5125067;27;20203;-35
2023/10/13 15:11:57;;;;;;;2.78;2.00;;;;;;;;;;5123277;27;20573;-37
2023/10/13 15:14:24;;;;;;;3.05;2.20;;;;;;;;;;5122243;27;20295;-35
2023/10/13 15:16:53;;;;;;;3.85;2.10;;;;;;;;;;5121787;27;20212;-39
2023/10/13 15:19:20;;;;;;;5.45;2.58;;;;;;;;;;5121848;27;20207;-40
2023/10/13 15:21:50;;;;;;;2.38;1.90;;;;;;;;;;5122027;27;20210;-43
2023/10/13 15:24:16;;;;;;;7.55;2.25;;;;;;;;;;5130081;27;20199;-42
2023/10/13 15:26:47;;;;;;;6.68;1.98;;;;;;;;;;5114496;27;20206;-38
2023/10/13 15:29:16;;;;;;;6.13;2.30;;;;;;;;;;5121901;27;20194;-36
2023/10/13 15:31:54;;;;;;;5.83;2.30;;;;;;;;;;5131231;27;20200;-36
2023/10/13 15:34:23;;;;;;;4.60;1.98;;;;;;;;;;5114709;27;20208;-39
2023/10/13 15:36:54;;;;;;;3.92;2.10;;;;;;;;;;5120436;27;20209;-43
2023/10/13 15:39:24;;;;;;;3.03;1.67;;;;;;;;;;5115170;28;20199;-37
2023/10/13 15:41:53;;;;;;;5.30;2.22;;;;;;;;;;5116155;27;20206;-34
2023/10/13 15:44:24;;;;;;;3.42;1.70;;;;;;;;;;5123241;27;20195;-39
2023/10/13 15:46:54;;;;;;;3.10;2.00;;;;;;;;;;5136316;27;20199;-39
2023/10/13 15:49:22;;;;;;;7.28;2.20;;;;;;;;;;5123829;27;20205;-35
2023/10/13 15:51:50;;;;;;;4.50;2.10;;;;;;;;;;5117252;27;20220;-37
2023/10/13 15:54:18;;;;;;;6.57;2.30;;;;;;;;;;5120694;27;20218;-35
2023/10/13 15:56:45;;;;;;;3.53;2.10;;;;;;;;;;5124560;27;20203;-39
2023/10/13 15:59:12;;;;;;;3.83;1.90;;;;;;;;;;5127770;27;20526;-35
2023/10/13 16:01:40;;;;;;;2.90;1.87;;;;;;;;;;5134941;27;20268;-34
2023/10/13 16:04:11;;;;;;;7.77;2.00;;;;;;;;;;5118081;27;20204;-36
2023/10/13 16:06:40;;;;;;;6.50;2.13;;;;;;;;;;5123918;27;20228;-36
2023/10/13 16:09:13;;;;;;;6.80;1.70;;;;;;;;;;5123368;27;20259;-33
2023/10/13 16:11:42;;;;;;;2.13;1.70;;;;;;;;;;5122405;27;20263;-39
2023/10/13 16:14:10;;;;;;;4.60;1.83;;;;;;;;;;5128124;27;20241;-40
2023/10/13 16:16:37;;;;;;;5.73;1.60;;;;;;;;;;5123074;27;20203;-37
2023/10/13 16:19:05;;;;;;;3.17;1.90;;;;;;;;;;5121476;27;20202;-41
2023/10/13 16:21:33;;;;;;;6.97;2.03;;;;;;;;;;5121934;27;20216;-39
2023/10/13 16:24:02;;;;;;;3.77;1.67;;;;;;;;;;5118315;27;20226;-38
2023/10/13 16:26:30;;;;;;;4.10;1.80;;;;;;;;;;5110593;27;20214;-36
2023/10/13 16:28:58;;;;;;;3.90;1.40;;;;;;;;;;5117523;27;20223;-37
2023/10/13 16:31:27;;;;;;;2.67;1.70;;;;;;;;;;5116526;27;20222;-38
2023/10/13 16:33:58;;;;;;;3.70;1.97;;;;;;;;;;5122706;27;20238;-34
2023/10/13 16:36:25;;;;;;;4.10;1.73;;;;;;;;;;5123395;27;20209;-40
2023/10/13 16:38:57;;;;;;;6.07;1.90;;;;;;;;;;5133468;27;20198;-41
2023/10/13 16:41:26;;;;;;;5.27;1.87;;;;;;;;;;5121593;27;20286;-37
2023/10/13 16:43:54;;;;;;;4.47;1.80;;;;;;;;;;5125569;27;20825;-38
2023/10/13 16:46:21;;;;;;;2.93;2.13;;;;;;;;;;5123819;27;20204;-36
2023/10/13 16:48:49;;;;;;;3.43;1.73;;;;;;;;;;5115868;27;20226;-38
2023/10/13 16:51:17;;;;;;;3.07;1.93;;;;;;;;;;5127970;27;20711;-42
2023/10/13 16:53:49;;;;;;;4.77;2.20;;;;;;;;;;5115097;27;20242;-41
2023/10/13 16:56:16;;;;;;;4.73;2.00;;;;;;;;;;5125999;27;20244;-41
2023/10/13 16:58:45;;;;;;;3.40;2.00;;;;;;;;;;5116893;27;20263;-37
2023/10/13 17:01:12;;;;;;;3.77;2.03;;;;;;;;;;5116626;27;20258;-36
2023/10/13 17:03:40;;;;;;;3.33;2.30;;;;;;;;;;5128007;27;20289;-41
2023/10/13 17:06:08;;;;;;;6.03;2.03;;;;;;;;;;5115748;27;20214;-38
2023/10/13 17:08:37;;;;;;;3.37;1.80;;;;;;;;;;5116586;27;20225;-38
2023/10/13 17:11:11;;;;;;;2.20;2.00;;;;;;;;;;5110866;27;20633;-35
2023/10/13 17:13:39;;;;;;;4.77;2.50;;;;;;;;;;5115359;27;20295;-38